Time;durP1;ratioP1;P1;durP2;ratioP2;P2;SDS_P1;SDS_P2;PMS_P1;PMS_P2;Temp;Humidity;BMP_temperature;BMP_pressure;BME280_temperature;BME280_humidity;BME280_pressure;Samples;Min_cycle;Max_cycle;Signal;HPM_P1;HPM_P2
2023/07/13 00:00:48;;;;;;;6.73;4.10;;;;;;;;;;5137463;27;20831;-64
2023/07/13 00:03:15;;;;;;;6.60;3.63;;;;;;;;;;5137534;27;20524;-64
2023/07/13 00:05:42;;;;;;;10.90;4.20;;;;;;;;;;5136431;27;20437;-64
2023/07/13 00:08:11;;;;;;;5.40;4.03;;;;;;;;;;5136564;27;20945;-64
2023/07/13 00:10:41;;;;;;;7.23;4.13;;;;;;;;;;5136553;27;20475;-63
2023/07/13 00:13:08;;;;;;;5.40;3.50;;;;;;;;;;5136404;27;20442;-64
2023/07/13 00:15:37;;;;;;;9.23;4.20;;;;;;;;;;5136441;27;20456;-64
2023/07/13 00:18:04;;;;;;;6.90;3.40;;;;;;;;;;5135995;27;20544;-63
2023/07/13 00:20:32;;;;;;;12.47;4.10;;;;;;;;;;5136116;27;20444;-63
2023/07/13 00:22:59;;;;;;;8.70;3.23;;;;;;;;;;5136231;27;20478;-63
2023/07/13 00:25:27;;;;;;;9.57;3.70;;;;;;;;;;5136037;27;20443;-64
2023/07/13 00:27:55;;;;;;;9.83;4.50;;;;;;;;;;5136120;27;20770;-63
2023/07/13 00:30:23;;;;;;;10.60;4.50;;;;;;;;;;5136063;27;20532;-64
2023/07/13 00:32:51;;;;;;;8.87;3.50;;;;;;;;;;5136013;27;20798;-63
2023/07/13 00:35:19;;;;;;;9.67;3.47;;;;;;;;;;5135860;27;20437;-63
2023/07/13 00:37:46;;;;;;;6.50;3.70;;;;;;;;;;5136139;27;20446;-63
2023/07/13 00:40:14;;;;;;;8.30;3.33;;;;;;;;;;5135936;27;20470;-64
2023/07/13 00:42:42;;;;;;;11.40;4.37;;;;;;;;;;5136616;27;20765;-63
2023/07/13 00:45:24;;;;;;;6.60;3.63;;;;;;;;;;5135634;27;20447;-63
2023/07/13 00:47:53;;;;;;;5.27;3.97;;;;;;;;;;5135477;27;20421;-64
2023/07/13 00:50:21;;;;;;;11.17;5.20;;;;;;;;;;5135488;27;20491;-63
2023/07/13 00:52:49;;;;;;;7.87;4.30;;;;;;;;;;5135907;27;20801;-63
2023/07/13 00:55:17;;;;;;;6.70;4.37;;;;;;;;;;5135213;27;20440;-63
2023/07/13 00:57:45;;;;;;;10.20;4.50;;;;;;;;;;5135183;27;20438;-63
2023/07/13 01:00:12;;;;;;;8.73;4.60;;;;;;;;;;5134936;27;20497;-63
2023/07/13 01:02:40;;;;;;;12.03;4.40;;;;;;;;;;5135409;27;20458;-63
2023/07/13 01:05:12;;;;;;;6.73;3.97;;;;;;;;;;5135458;27;20447;-63
2023/07/13 01:07:40;;;;;;;4.40;3.97;;;;;;;;;;5135778;27;20438;-64
2023/07/13 01:10:08;;;;;;;5.27;3.97;;;;;;;;;;5135198;27;20477;-64
2023/07/13 01:12:35;;;;;;;6.00;4.13;;;;;;;;;;5135179;27;20439;-64
2023/07/13 01:15:04;;;;;;;9.23;4.20;;;;;;;;;;5135138;27;20441;-63
2023/07/13 01:17:32;;;;;;;5.60;4.23;;;;;;;;;;5134964;27;20474;-63
2023/07/13 01:20:00;;;;;;;8.50;4.00;;;;;;;;;;5134672;27;20450;-63
2023/07/13 01:22:29;;;;;;;8.93;4.50;;;;;;;;;;5135078;27;20538;-63
2023/07/13 01:24:56;;;;;;;8.23;3.83;;;;;;;;;;5134636;27;20440;-64
2023/07/13 01:27:25;;;;;;;8.20;4.70;;;;;;;;;;5135016;27;20444;-63
2023/07/13 01:29:53;;;;;;;4.80;4.07;;;;;;;;;;5134694;27;20568;-63
2023/07/13 01:32:23;;;;;;;7.30;4.33;;;;;;;;;;5134948;27;20444;-63
2023/07/13 01:34:54;;;;;;;8.50;4.70;;;;;;;;;;5134502;27;20427;-63
2023/07/13 01:37:21;;;;;;;10.20;5.10;;;;;;;;;;5135011;27;20424;-63
2023/07/13 01:39:50;;;;;;;8.87;4.60;;;;;;;;;;5134361;27;20493;-63
2023/07/13 01:42:17;;;;;;;7.03;4.50;;;;;;;;;;5134748;27;20919;-63
2023/07/13 01:44:44;;;;;;;8.03;4.40;;;;;;;;;;5134300;27;20442;-63
2023/07/13 01:47:11;;;;;;;7.60;4.40;;;;;;;;;;5134336;27;20444;-63
2023/07/13 01:49:39;;;;;;;6.47;3.80;;;;;;;;;;5135169;27;20448;-64
2023/07/13 01:52:06;;;;;;;14.53;6.67;;;;;;;;;;5134597;27;20451;-63
2023/07/13 01:54:34;;;;;;;4.60;3.77;;;;;;;;;;5134457;27;20447;-64
2023/07/13 01:57:03;;;;;;;8.23;4.90;;;;;;;;;;5134453;27;20438;-63
2023/07/13 01:59:30;;;;;;;4.93;4.40;;;;;;;;;;5134014;27;21026;-64
2023/07/13 02:01:57;;;;;;;9.20;4.53;;;;;;;;;;5134192;27;20451;-63
2023/07/13 02:04:24;;;;;;;6.73;4.50;;;;;;;;;;5134370;27;20453;-63
2023/07/13 02:06:52;;;;;;;9.07;4.77;;;;;;;;;;5134044;27;20444;-63
2023/07/13 02:09:19;;;;;;;6.83;4.10;;;;;;;;;;5134094;27;20438;-63
2023/07/13 02:11:46;;;;;;;9.30;5.03;;;;;;;;;;5133900;27;20486;-63
2023/07/13 02:14:15;;;;;;;12.47;4.97;;;;;;;;;;5134121;27;20446;-63
2023/07/13 02:16:42;;;;;;;8.20;4.57;;;;;;;;;;5134221;27;20470;-63
2023/07/13 02:19:10;;;;;;;10.13;4.80;;;;;;;;;;5134344;27;20435;-62
2023/07/13 02:21:37;;;;;;;6.53;4.57;;;;;;;;;;5134207;27;20454;-63
2023/07/13 02:24:04;;;;;;;7.87;6.20;;;;;;;;;;5134285;27;20436;-63
2023/07/13 02:26:31;;;;;;;9.97;4.77;;;;;;;;;;5134169;27;20527;-64
2023/07/13 02:28:59;;;;;;;7.67;4.83;;;;;;;;;;5137468;27;20458;-63
2023/07/13 02:31:27;;;;;;;13.10;5.77;;;;;;;;;;5138264;27;20483;-63
2023/07/13 02:33:55;;;;;;;9.43;4.83;;;;;;;;;;5138074;27;20443;-63
2023/07/13 02:36:22;;;;;;;7.20;4.60;;;;;;;;;;5138292;27;20451;-63
2023/07/13 02:38:51;;;;;;;9.30;5.23;;;;;;;;;;5138269;27;20448;-63
2023/07/13 02:41:18;;;;;;;7.37;4.50;;;;;;;;;;5138177;27;20438;-63
2023/07/13 02:43:45;;;;;;;12.10;4.80;;;;;;;;;;5138181;27;20528;-63
2023/07/13 02:46:12;;;;;;;6.63;3.90;;;;;;;;;;5137966;27;20430;-64
2023/07/13 02:48:41;;;;;;;7.70;4.23;;;;;;;;;;5137762;27;20450;-63
2023/07/13 02:51:08;;;;;;;7.03;4.67;;;;;;;;;;5138241;27;20480;-63
2023/07/13 02:53:36;;;;;;;5.50;4.73;;;;;;;;;;5138308;27;20438;-64
2023/07/13 02:56:03;;;;;;;6.57;3.50;;;;;;;;;;5138037;27;20450;-63
2023/07/13 02:58:30;;;;;;;5.57;3.93;;;;;;;;;;5137848;27;20448;-64
2023/07/13 03:00:58;;;;;;;7.53;4.40;;;;;;;;;;5137774;27;20801;-63
2023/07/13 03:03:24;;;;;;;7.53;4.53;;;;;;;;;;5137516;27;20991;-63
2023/07/13 03:06:00;;;;;;;10.30;4.00;;;;;;;;;;5137720;27;20946;-63
2023/07/13 03:08:27;;;;;;;6.27;3.83;;;;;;;;;;5137357;27;20816;-63
2023/07/13 03:11:00;;;;;;;14.93;4.00;;;;;;;;;;5137158;27;20475;-63
2023/07/13 03:13:27;;;;;;;6.00;3.60;;;;;;;;;;5137684;27;20427;-63
2023/07/13 03:15:54;;;;;;;8.50;3.97;;;;;;;;;;5137458;27;20438;-63
2023/07/13 03:18:22;;;;;;;12.00;3.97;;;;;;;;;;5137535;27;20447;-63
2023/07/13 03:20:53;;;;;;;5.90;3.60;;;;;;;;;;5137377;27;20442;-64
2023/07/13 03:23:20;;;;;;;6.07;3.40;;;;;;;;;;5137937;27;20423;-64
2023/07/13 03:25:47;;;;;;;7.10;3.97;;;;;;;;;;5136922;27;20444;-64
2023/07/13 03:28:15;;;;;;;6.53;4.20;;;;;;;;;;5136921;27;20444;-64
2023/07/13 03:30:42;;;;;;;6.10;3.33;;;;;;;;;;5136778;27;20969;-65
2023/07/13 03:33:09;;;;;;;4.00;3.57;;;;;;;;;;5136943;27;20449;-63
2023/07/13 03:35:37;;;;;;;10.70;4.60;;;;;;;;;;5136799;27;20434;-64
2023/07/13 03:38:05;;;;;;;8.93;4.53;;;;;;;;;;5137068;27;20440;-63
2023/07/13 03:40:33;;;;;;;5.53;4.13;;;;;;;;;;5136405;27;20442;-63
2023/07/13 03:43:02;;;;;;;7.90;3.03;;;;;;;;;;5136698;27;20541;-63
2023/07/13 03:45:29;;;;;;;7.97;4.00;;;;;;;;;;5136635;27;20948;-64
2023/07/13 03:47:56;;;;;;;7.37;3.63;;;;;;;;;;5136536;27;20969;-63
2023/07/13 03:50:23;;;;;;;5.00;3.23;;;;;;;;;;5136520;27;20449;-62
2023/07/13 03:52:51;;;;;;;4.80;3.73;;;;;;;;;;5135556;27;20456;-64
2023/07/13 03:55:19;;;;;;;8.00;3.40;;;;;;;;;;5136424;27;20450;-62
2023/07/13 03:57:47;;;;;;;4.70;3.33;;;;;;;;;;5136237;27;20442;-62
2023/07/13 04:00:15;;;;;;;6.77;3.30;;;;;;;;;;5136730;27;20479;-63
2023/07/13 04:02:42;;;;;;;11.03;3.50;;;;;;;;;;5136454;27;20440;-63
2023/07/13 04:05:10;;;;;;;7.33;3.50;;;;;;;;;;5136432;27;20444;-63
2023/07/13 04:07:37;;;;;;;10.50;4.37;;;;;;;;;;5136378;27;20439;-63
2023/07/13 04:10:04;;;;;;;8.90;3.37;;;;;;;;;;5136272;27;20449;-63
2023/07/13 04:12:33;;;;;;;5.80;3.50;;;;;;;;;;5136303;27;20476;-63
2023/07/13 04:15:00;;;;;;;7.83;3.73;;;;;;;;;;5136047;27;20534;-63
2023/07/13 04:17:27;;;;;;;10.00;3.07;;;;;;;;;;5135920;27;20436;-63
2023/07/13 04:19:54;;;;;;;6.30;3.13;;;;;;;;;;5135769;27;20442;-63
2023/07/13 04:22:22;;;;;;;8.80;3.53;;;;;;;;;;5135966;27;20953;-63
2023/07/13 04:24:49;;;;;;;6.40;3.67;;;;;;;;;;5136108;27;20436;-63
2023/07/13 04:27:16;;;;;;;5.10;2.90;;;;;;;;;;5135644;27;21000;-63
2023/07/13 04:29:45;;;;;;;8.47;3.20;;;;;;;;;;5136149;27;20915;-64
2023/07/13 04:32:12;;;;;;;7.90;3.17;;;;;;;;;;5135681;27;20482;-63
2023/07/13 04:34:39;;;;;;;5.30;2.80;;;;;;;;;;5136254;27;20449;-63
2023/07/13 04:37:07;;;;;;;4.80;3.20;;;;;;;;;;5135441;27;20561;-62
2023/07/13 04:39:34;;;;;;;6.33;2.50;;;;;;;;;;5136000;27;20441;-63
2023/07/13 04:42:01;;;;;;;7.43;3.83;;;;;;;;;;5135581;27;20448;-63
2023/07/13 04:44:28;;;;;;;5.87;2.90;;;;;;;;;;5135369;27;20446;-63
2023/07/13 04:46:57;;;;;;;6.70;2.80;;;;;;;;;;5135239;27;20438;-63
2023/07/13 04:49:24;;;;;;;8.07;3.37;;;;;;;;;;5135580;27;20444;-63
2023/07/13 04:51:51;;;;;;;8.13;3.10;;;;;;;;;;5134090;27;20467;-63
2023/07/13 04:54:18;;;;;;;6.90;3.07;;;;;;;;;;5135525;27;20441;-63
2023/07/13 04:56:45;;;;;;;5.03;3.40;;;;;;;;;;5135349;27;20446;-63
2023/07/13 04:59:12;;;;;;;7.13;3.10;;;;;;;;;;5135146;27;20470;-63
2023/07/13 05:01:40;;;;;;;5.30;3.60;;;;;;;;;;5135336;27;20435;-63
2023/07/13 05:04:09;;;;;;;5.13;2.63;;;;;;;;;;5135193;27;20531;-67
2023/07/13 05:06:36;;;;;;;6.93;3.10;;;;;;;;;;5134990;27;20442;-63
2023/07/13 05:09:03;;;;;;;10.07;3.97;;;;;;;;;;5135103;27;20472;-63
2023/07/13 05:11:30;;;;;;;7.20;3.50;;;;;;;;;;5134952;27;20482;-63
2023/07/13 05:13:58;;;;;;;8.83;3.57;;;;;;;;;;5135019;27;20438;-63
2023/07/13 05:16:25;;;;;;;7.97;3.23;;;;;;;;;;5135070;27;20440;-63
2023/07/13 05:18:52;;;;;;;4.60;2.53;;;;;;;;;;5134612;27;20461;-63
2023/07/13 05:21:21;;;;;;;8.20;3.70;;;;;;;;;;5134839;27;20451;-63
2023/07/13 05:23:49;;;;;;;7.87;2.83;;;;;;;;;;5134392;27;20447;-63
2023/07/13 05:26:16;;;;;;;6.97;3.13;;;;;;;;;;5134902;27;20445;-63
2023/07/13 05:28:43;;;;;;;7.20;2.83;;;;;;;;;;5134587;27;20439;-63
2023/07/13 05:31:10;;;;;;;8.57;3.27;;;;;;;;;;5134875;27;20521;-63
2023/07/13 05:33:38;;;;;;;7.33;2.90;;;;;;;;;;5134858;27;20443;-63
2023/07/13 05:36:05;;;;;;;7.03;3.10;;;;;;;;;;5135108;27;20439;-63
2023/07/13 05:38:33;;;;;;;8.57;3.63;;;;;;;;;;5134791;27;20786;-63
2023/07/13 05:41:01;;;;;;;8.17;3.00;;;;;;;;;;5135396;27;20443;-63
2023/07/13 05:43:28;;;;;;;10.60;3.23;;;;;;;;;;5134323;27;20439;-63
2023/07/13 05:45:56;;;;;;;5.63;3.70;;;;;;;;;;5135017;27;20806;-63
2023/07/13 05:48:23;;;;;;;11.73;4.57;;;;;;;;;;5134558;27;20443;-63
2023/07/13 05:50:51;;;;;;;7.00;3.20;;;;;;;;;;5134260;27;20442;-63
2023/07/13 05:53:18;;;;;;;10.33;3.23;;;;;;;;;;5134464;27;20444;-63
2023/07/13 05:55:49;;;;;;;7.50;3.20;;;;;;;;;;5134602;27;20446;-63
2023/07/13 05:58:17;;;;;;;11.40;3.20;;;;;;;;;;5134664;27;20513;-63
2023/07/13 06:00:45;;;;;;;8.50;3.70;;;;;;;;;;5134079;27;20471;-64
2023/07/13 06:03:12;;;;;;;9.90;4.07;;;;;;;;;;5134361;27;20816;-63
2023/07/13 06:05:39;;;;;;;6.60;3.77;;;;;;;;;;5134336;27;20930;-63
2023/07/13 06:08:07;;;;;;;9.20;4.07;;;;;;;;;;5134079;27;20986;-63
2023/07/13 06:10:34;;;;;;;12.90;4.60;;;;;;;;;;5134487;28;20790;-63
2023/07/13 06:13:03;;;;;;;9.10;4.33;;;;;;;;;;5134368;28;20790;-64
2023/07/13 06:15:30;;;;;;;8.73;3.80;;;;;;;;;;5134671;28;20435;-63
2023/07/13 06:17:57;;;;;;;13.43;3.90;;;;;;;;;;5134311;28;20466;-64
2023/07/13 06:20:24;;;;;;;9.30;4.07;;;;;;;;;;5134319;28;20449;-63
2023/07/13 06:22:52;;;;;;;8.03;4.10;;;;;;;;;;5134230;28;20443;-65
2023/07/13 06:25:19;;;;;;;11.80;4.80;;;;;;;;;;5134265;28;20445;-64
2023/07/13 06:27:46;;;;;;;9.30;4.60;;;;;;;;;;5134254;28;20450;-63
2023/07/13 06:30:15;;;;;;;5.60;4.03;;;;;;;;;;5134559;28;20444;-63
2023/07/13 06:32:42;;;;;;;9.60;3.80;;;;;;;;;;5134055;28;20475;-63
2023/07/13 06:35:12;;;;;;;10.73;4.10;;;;;;;;;;5134100;28;20446;-63
2023/07/13 06:37:39;;;;;;;7.30;3.80;;;;;;;;;;5133828;28;20499;-63
2023/07/13 06:40:07;;;;;;;10.10;4.00;;;;;;;;;;5133677;28;20946;-63
2023/07/13 06:42:34;;;;;;;7.57;3.23;;;;;;;;;;5134106;28;20797;-63
2023/07/13 06:45:01;;;;;;;5.80;3.93;;;;;;;;;;5134024;28;20445;-63
2023/07/13 06:47:30;;;;;;;12.20;3.67;;;;;;;;;;5134165;28;20445;-63
2023/07/13 06:49:57;;;;;;;8.80;4.17;;;;;;;;;;5133564;28;20446;-64
2023/07/13 06:52:24;;;;;;;6.20;3.97;;;;;;;;;;5134158;28;20988;-63
2023/07/13 06:54:51;;;;;;;11.97;3.70;;;;;;;;;;5133912;28;20449;-63
2023/07/13 06:57:18;;;;;;;8.70;3.73;;;;;;;;;;5133977;28;20444;-63
2023/07/13 06:59:46;;;;;;;9.30;3.67;;;;;;;;;;5133311;28;20470;-64
2023/07/13 07:02:13;;;;;;;7.30;3.50;;;;;;;;;;5133637;28;20955;-64
2023/07/13 07:04:41;;;;;;;12.60;4.33;;;;;;;;;;5133755;28;20801;-63
2023/07/13 07:07:09;;;;;;;9.13;3.50;;;;;;;;;;5134198;28;20430;-63
2023/07/13 07:09:36;;;;;;;9.27;3.80;;;;;;;;;;5133793;28;20434;-63
2023/07/13 07:12:03;;;;;;;5.30;3.40;;;;;;;;;;5133922;28;20483;-63
2023/07/13 07:14:31;;;;;;;9.70;3.53;;;;;;;;;;5134785;27;20436;-62
2023/07/13 07:16:58;;;;;;;6.13;2.97;;;;;;;;;;5137669;27;20814;-63
2023/07/13 07:19:26;;;;;;;8.70;3.40;;;;;;;;;;5137436;27;20428;-64
2023/07/13 07:21:54;;;;;;;6.70;3.10;;;;;;;;;;5137609;27;20435;-62
2023/07/13 07:24:21;;;;;;;6.43;3.10;;;;;;;;;;5137433;27;20469;-62
2023/07/13 07:26:48;;;;;;;7.23;3.13;;;;;;;;;;5137412;27;20985;-62
2023/07/13 07:29:16;;;;;;;8.10;3.30;;;;;;;;;;5137304;27;20762;-63
2023/07/13 07:31:43;;;;;;;6.77;3.27;;;;;;;;;;5137050;27;20786;-63
2023/07/13 07:34:10;;;;;;;7.20;3.37;;;;;;;;;;5137303;27;20449;-63
2023/07/13 07:36:37;;;;;;;8.33;4.00;;;;;;;;;;5137257;27;20436;-63
2023/07/13 07:39:06;;;;;;;6.10;3.03;;;;;;;;;;5137187;27;20436;-63
2023/07/13 07:41:33;;;;;;;4.90;3.17;;;;;;;;;;5136955;27;20963;-63
2023/07/13 07:44:00;;;;;;;9.83;3.80;;;;;;;;;;5137021;27;20796;-64
2023/07/13 07:46:27;;;;;;;8.87;3.77;;;;;;;;;;5137356;27;20774;-63
2023/07/13 07:48:55;;;;;;;7.37;3.43;;;;;;;;;;5136540;27;20441;-63
2023/07/13 07:51:22;;;;;;;9.30;3.90;;;;;;;;;;5136383;27;20445;-63
2023/07/13 07:53:49;;;;;;;10.03;3.97;;;;;;;;;;5136360;27;20483;-63
2023/07/13 07:56:18;;;;;;;7.07;3.93;;;;;;;;;;5136646;27;20442;-63
2023/07/13 07:58:45;;;;;;;8.43;3.60;;;;;;;;;;5136979;27;20924;-63
2023/07/13 08:01:12;;;;;;;9.70;3.90;;;;;;;;;;5136246;27;20428;-63
2023/07/13 08:03:39;;;;;;;9.33;4.13;;;;;;;;;;5136239;27;20449;-63
2023/07/13 08:06:07;;;;;;;10.00;4.27;;;;;;;;;;5136482;27;20462;-63
2023/07/13 08:08:34;;;;;;;7.40;3.87;;;;;;;;;;5136877;27;20450;-63
2023/07/13 08:11:03;;;;;;;5.67;4.40;;;;;;;;;;5136502;27;20442;-63
2023/07/13 08:13:32;;;;;;;15.60;5.30;;;;;;;;;;5136341;27;20476;-63
2023/07/13 08:15:59;;;;;;;9.40;5.97;;;;;;;;;;5135886;27;21013;-63
2023/07/13 08:18:27;;;;;;;12.17;5.10;;;;;;;;;;5136349;27;20924;-62
2023/07/13 08:20:56;;;;;;;10.07;5.77;;;;;;;;;;5136182;27;20444;-63
2023/07/13 08:23:23;;;;;;;9.87;5.80;;;;;;;;;;5136657;27;20458;-62
2023/07/13 08:25:52;;;;;;;6.37;5.30;;;;;;;;;;5136155;27;20440;-62
2023/07/13 08:28:20;;;;;;;10.83;6.03;;;;;;;;;;5136078;27;20443;-62
2023/07/13 08:30:49;;;;;;;9.37;6.50;;;;;;;;;;5135484;27;20443;-63
2023/07/13 08:33:16;;;;;;;9.20;5.30;;;;;;;;;;5135799;27;20855;-63
2023/07/13 08:35:43;;;;;;;13.13;5.73;;;;;;;;;;5135447;27;20442;-63
2023/07/13 08:38:10;;;;;;;9.60;4.93;;;;;;;;;;5135582;27;20452;-62
2023/07/13 08:40:38;;;;;;;11.70;6.10;;;;;;;;;;5135698;27;20959;-63
2023/07/13 08:43:05;;;;;;;13.47;5.10;;;;;;;;;;5135821;27;20445;-63
2023/07/13 08:45:40;;;;;;;8.60;5.57;;;;;;;;;;5135318;27;20450;-64
2023/07/13 08:48:12;;;;;;;6.83;4.90;;;;;;;;;;5135722;27;20425;-63
2023/07/13 08:50:44;;;;;;;10.20;5.67;;;;;;;;;;5135301;27;20466;-63
2023/07/13 08:53:14;;;;;;;14.87;5.80;;;;;;;;;;5135280;27;20460;-63
2023/07/13 08:55:41;;;;;;;6.00;4.63;;;;;;;;;;5135948;27;20799;-63
2023/07/13 08:58:12;;;;;;;10.40;4.97;;;;;;;;;;5135485;27;20452;-63
2023/07/13 09:00:44;;;;;;;5.30;3.90;;;;;;;;;;5135610;27;20559;-63
2023/07/13 09:03:20;;;;;;;8.00;4.50;;;;;;;;;;5135700;27;20440;-63
2023/07/13 09:05:51;;;;;;;11.50;5.73;;;;;;;;;;5135354;27;20422;-62
2023/07/13 09:08:35;;;;;;;14.87;4.70;;;;;;;;;;5135610;27;20875;-63
2023/07/13 09:11:06;;;;;;;8.07;4.07;;;;;;;;;;5134940;27;20433;-63
2023/07/13 09:13:38;;;;;;;8.53;4.70;;;;;;;;;;5135160;27;20476;-63
2023/07/13 09:16:06;;;;;;;11.10;4.90;;;;;;;;;;5134955;27;20436;-63
2023/07/13 09:18:37;;;;;;;6.73;4.07;;;;;;;;;;5134794;27;20926;-63
2023/07/13 09:21:05;;;;;;;11.47;5.10;;;;;;;;;;5135273;27;20439;-63
2023/07/13 09:23:32;;;;;;;10.80;4.70;;;;;;;;;;5135444;27;20434;-63
2023/07/13 09:26:03;;;;;;;10.73;4.20;;;;;;;;;;5134822;27;20597;-63
2023/07/13 09:28:31;;;;;;;10.10;3.97;;;;;;;;;;5135193;27;20444;-63
2023/07/13 09:31:02;;;;;;;7.10;4.20;;;;;;;;;;5134786;27;20511;-63
2023/07/13 09:33:30;;;;;;;9.20;4.40;;;;;;;;;;5135205;27;20500;-63
2023/07/13 09:35:59;;;;;;;10.17;4.07;;;;;;;;;;5135397;27;20434;-63
2023/07/13 09:38:28;;;;;;;6.73;3.70;;;;;;;;;;5134472;27;20440;-63
2023/07/13 09:41:01;;;;;;;7.73;3.93;;;;;;;;;;5134322;27;20492;-63
2023/07/13 09:43:29;;;;;;;7.00;3.73;;;;;;;;;;5134930;27;20429;-62
2023/07/13 09:45:57;;;;;;;8.10;4.27;;;;;;;;;;5134221;27;20441;-63
2023/07/13 09:48:25;;;;;;;6.67;4.03;;;;;;;;;;5134327;27;20440;-63
2023/07/13 09:50:56;;;;;;;7.40;3.80;;;;;;;;;;5134507;27;20442;-63
2023/07/13 09:53:25;;;;;;;9.20;4.00;;;;;;;;;;5134756;27;20465;-62
2023/07/13 09:55:52;;;;;;;5.97;3.33;;;;;;;;;;5134717;27;20525;-63
2023/07/13 09:58:22;;;;;;;9.07;3.97;;;;;;;;;;5134181;27;20441;-63
2023/07/13 10:00:56;;;;;;;8.43;4.20;;;;;;;;;;5134618;27;21034;-64
2023/07/13 10:03:25;;;;;;;10.50;3.10;;;;;;;;;;5134342;27;20426;-63
2023/07/13 10:05:53;;;;;;;6.63;3.73;;;;;;;;;;5134375;28;20434;-64
2023/07/13 10:08:22;;;;;;;4.90;3.40;;;;;;;;;;5134403;27;20506;-63
2023/07/13 10:10:56;;;;;;;5.30;3.53;;;;;;;;;;5134434;28;20456;-63
2023/07/13 10:13:27;;;;;;;14.10;3.67;;;;;;;;;;5134428;28;20465;-63
2023/07/13 10:15:56;;;;;;;11.23;4.27;;;;;;;;;;5134982;28;20467;-63
2023/07/13 10:18:24;;;;;;;9.80;5.00;;;;;;;;;;5134275;28;20454;-62
2023/07/13 10:20:52;;;;;;;8.77;4.10;;;;;;;;;;5134750;28;20437;-63
2023/07/13 10:23:23;;;;;;;9.17;4.30;;;;;;;;;;5134169;28;20446;-62
2023/07/13 10:25:50;;;;;;;5.23;4.13;;;;;;;;;;5134266;28;20426;-63
2023/07/13 10:28:24;;;;;;;7.90;4.60;;;;;;;;;;5134128;28;20451;-63
2023/07/13 10:30:51;;;;;;;11.30;5.17;;;;;;;;;;5133949;28;20436;-63
2023/07/13 10:33:18;;;;;;;6.43;4.80;;;;;;;;;;5134062;28;20504;-63
2023/07/13 10:35:47;;;;;;;4.90;4.30;;;;;;;;;;5134145;28;20433;-64
2023/07/13 10:38:15;;;;;;;7.03;4.37;;;;;;;;;;5134144;28;20834;-63
2023/07/13 10:40:44;;;;;;;8.87;4.60;;;;;;;;;;5133757;28;20472;-63
2023/07/13 10:43:15;;;;;;;7.90;4.93;;;;;;;;;;5133995;28;20545;-64
2023/07/13 10:45:46;;;;;;;6.90;4.83;;;;;;;;;;5134330;28;20520;-63
2023/07/13 10:48:14;;;;;;;5.80;4.27;;;;;;;;;;5134075;27;20422;-63
2023/07/13 10:50:44;;;;;;;5.20;3.90;;;;;;;;;;5137069;27;20843;-62
2023/07/13 10:53:20;;;;;;;8.00;4.03;;;;;;;;;;5137786;27;20473;-63
2023/07/13 10:55:57;;;;;;;6.23;3.93;;;;;;;;;;5137895;27;20902;-63
2023/07/13 10:58:25;;;;;;;5.07;3.33;;;;;;;;;;5137433;27;20532;-62
2023/07/13 11:00:58;;;;;;;7.87;4.90;;;;;;;;;;5137388;27;20533;-64
2023/07/13 11:03:29;;;;;;;8.20;4.40;;;;;;;;;;5137433;27;20917;-63
2023/07/13 11:06:08;;;;;;;5.93;3.20;;;;;;;;;;5137805;27;20844;-63
2023/07/13 11:08:38;;;;;;;4.50;3.33;;;;;;;;;;5137730;27;20423;-63
2023/07/13 11:11:26;;;;;;;5.30;3.40;;;;;;;;;;5138263;27;20441;-62
2023/07/13 11:14:02;;;;;;;7.83;3.27;;;;;;;;;;5137415;27;20472;-63
2023/07/13 11:16:39;;;;;;;4.93;3.60;;;;;;;;;;5137181;27;20509;-63
2023/07/13 11:19:26;;;;;;;4.00;2.90;;;;;;;;;;5137372;27;20435;-63
2023/07/13 11:22:12;;;;;;;3.80;2.90;;;;;;;;;;5137512;27;20455;-64
2023/07/13 11:24:50;;;;;;;4.33;3.17;;;;;;;;;;5137613;27;20509;-63
2023/07/13 11:27:23;;;;;;;6.73;3.30;;;;;;;;;;5137139;27;20464;-63
2023/07/13 11:29:51;;;;;;;12.23;2.90;;;;;;;;;;5136922;27;20447;-65
2023/07/13 11:32:26;;;;;;;3.77;2.60;;;;;;;;;;5137081;27;20443;-67
2023/07/13 11:34:55;;;;;;;4.10;2.97;;;;;;;;;;5137875;27;20470;-66
2023/07/13 11:37:23;;;;;;;4.37;2.50;;;;;;;;;;5137422;27;20551;-66
2023/07/13 11:39:52;;;;;;;4.83;3.10;;;;;;;;;;5137092;27;20871;-67
2023/07/13 11:42:22;;;;;;;4.27;2.90;;;;;;;;;;5136611;27;20446;-73
2023/07/13 11:44:50;;;;;;;4.70;3.57;;;;;;;;;;5136826;27;20439;-67
2023/07/13 11:47:21;;;;;;;9.43;4.37;;;;;;;;;;5136827;27;20439;-66
2023/07/13 11:49:52;;;;;;;5.00;3.20;;;;;;;;;;5136551;27;20417;-66
2023/07/13 11:52:21;;;;;;;7.17;3.60;;;;;;;;;;5135882;27;20471;-67
2023/07/13 11:54:51;;;;;;;6.73;3.00;;;;;;;;;;5136316;27;20523;-66
2023/07/13 11:57:22;;;;;;;3.47;3.17;;;;;;;;;;5136528;27;20448;-68
2023/07/13 11:59:51;;;;;;;5.57;3.10;;;;;;;;;;5136194;27;20472;-67
2023/07/13 12:02:23;;;;;;;5.33;3.00;;;;;;;;;;5135980;27;20935;-67
2023/07/13 12:04:52;;;;;;;8.40;3.17;;;;;;;;;;5136247;27;20461;-67
2023/07/13 12:07:20;;;;;;;3.93;2.73;;;;;;;;;;5136413;27;20443;-67
2023/07/13 12:09:50;;;;;;;6.43;2.70;;;;;;;;;;5136285;27;20439;-66
2023/07/13 12:12:19;;;;;;;4.47;2.70;;;;;;;;;;5135911;27;20940;-66
2023/07/13 12:14:47;;;;;;;7.67;2.93;;;;;;;;;;5135773;27;20478;-66
2023/07/13 12:17:20;;;;;;;4.20;2.73;;;;;;;;;;5136360;27;20797;-66
2023/07/13 12:19:48;;;;;;;9.43;3.40;;;;;;;;;;5136307;27;20437;-66
2023/07/13 12:22:19;;;;;;;3.63;2.77;;;;;;;;;;5135754;27;20448;-66
2023/07/13 12:24:48;;;;;;;5.30;3.30;;;;;;;;;;5136068;27;20493;-66
2023/07/13 12:27:19;;;;;;;5.50;3.40;;;;;;;;;;5135999;27;20794;-67
2023/07/13 12:29:53;;;;;;;6.77;3.80;;;;;;;;;;5135526;27;20450;-66
2023/07/13 12:32:21;;;;;;;7.63;4.80;;;;;;;;;;5135971;27;20771;-67
2023/07/13 12:34:53;;;;;;;5.67;4.20;;;;;;;;;;5135740;27;20676;-66
2023/07/13 12:37:22;;;;;;;12.37;5.43;;;;;;;;;;5135901;27;20775;-67
2023/07/13 12:39:50;;;;;;;10.70;6.30;;;;;;;;;;5135830;27;20803;-66
2023/07/13 12:42:24;;;;;;;9.40;7.50;;;;;;;;;;5135717;27;20434;-67
2023/07/13 12:44:54;;;;;;;7.97;6.23;;;;;;;;;;5135813;27;20769;-67
2023/07/13 12:47:22;;;;;;;10.10;6.70;;;;;;;;;;5136068;27;20437;-66
2023/07/13 12:49:51;;;;;;;9.63;6.97;;;;;;;;;;5135503;27;20439;-68
2023/07/13 12:52:19;;;;;;;9.80;5.70;;;;;;;;;;5135257;27;20444;-67
2023/07/13 12:54:57;;;;;;;8.33;6.80;;;;;;;;;;5135268;27;20468;-67
2023/07/13 12:57:25;;;;;;;7.33;5.53;;;;;;;;;;5135541;27;20480;-67
2023/07/13 12:59:54;;;;;;;14.60;7.97;;;;;;;;;;5134765;27;20529;-67
2023/07/13 13:02:28;;;;;;;7.57;6.00;;;;;;;;;;5135244;27;20437;-67
2023/07/13 13:04:56;;;;;;;6.93;6.23;;;;;;;;;;5135336;27;20433;-67
2023/07/13 13:07:24;;;;;;;11.57;5.57;;;;;;;;;;5135255;27;20537;-67
2023/07/13 13:09:53;;;;;;;7.20;5.27;;;;;;;;;;5135792;27;20465;-67
2023/07/13 13:12:21;;;;;;;9.17;5.80;;;;;;;;;;5134210;27;20464;-67
2023/07/13 13:14:49;;;;;;;8.97;5.07;;;;;;;;;;5134918;27;20476;-67
2023/07/13 13:17:20;;;;;;;7.33;5.40;;;;;;;;;;5135342;27;20536;-67
2023/07/13 13:19:47;;;;;;;6.77;5.60;;;;;;;;;;5134780;27;20417;-67
2023/07/13 13:22:14;;;;;;;7.60;5.07;;;;;;;;;;5134868;27;20441;-67
2023/07/13 13:24:42;;;;;;;7.20;4.57;;;;;;;;;;5134767;27;20440;-66
2023/07/13 13:27:11;;;;;;;5.80;4.70;;;;;;;;;;5134841;27;20485;-66
2023/07/13 13:29:40;;;;;;;8.93;5.50;;;;;;;;;;5134729;27;20447;-67
2023/07/13 13:32:11;;;;;;;8.67;5.07;;;;;;;;;;5133951;27;20440;-67
2023/07/13 13:34:38;;;;;;;10.47;5.03;;;;;;;;;;5134146;27;20468;-66
2023/07/13 13:37:12;;;;;;;7.63;4.57;;;;;;;;;;5134682;27;20476;-66
2023/07/13 13:39:39;;;;;;;5.53;3.90;;;;;;;;;;5134250;27;20926;-66
2023/07/13 13:42:07;;;;;;;5.50;4.57;;;;;;;;;;5134564;27;20445;-66
2023/07/13 13:44:34;;;;;;;4.97;4.47;;;;;;;;;;5134405;27;20499;-66
2023/07/13 13:47:03;;;;;;;4.20;3.90;;;;;;;;;;5134694;27;20435;-66
2023/07/13 13:49:31;;;;;;;4.80;4.30;;;;;;;;;;5134568;27;20490;-67
2023/07/13 13:51:59;;;;;;;4.70;4.20;;;;;;;;;;5134279;27;20444;-67
2023/07/13 13:54:26;;;;;;;7.03;4.20;;;;;;;;;;5134065;27;20482;-67
2023/07/13 13:56:55;;;;;;;6.17;4.77;;;;;;;;;;5134578;27;20526;-68
2023/07/13 13:59:22;;;;;;;7.57;5.10;;;;;;;;;;5134444;27;20568;-68
2023/07/13 14:01:50;;;;;;;4.97;4.47;;;;;;;;;;5134394;27;20918;-67
2023/07/13 14:04:19;;;;;;;5.40;4.87;;;;;;;;;;5134475;27;20793;-67
2023/07/13 14:06:46;;;;;;;8.50;5.43;;;;;;;;;;5134353;27;20444;-67
2023/07/13 14:09:15;;;;;;;5.33;4.47;;;;;;;;;;5134422;27;20432;-67
2023/07/13 14:11:42;;;;;;;5.60;4.70;;;;;;;;;;5134337;28;20445;-66
2023/07/13 14:14:13;;;;;;;5.73;4.70;;;;;;;;;;5134699;28;20532;-66
2023/07/13 14:16:42;;;;;;;5.60;4.93;;;;;;;;;;5134270;28;20442;-66
2023/07/13 14:19:11;;;;;;;6.47;5.33;;;;;;;;;;5133409;28;20494;-62
2023/07/13 14:21:40;;;;;;;5.90;4.87;;;;;;;;;;5133626;28;20540;-63
2023/07/13 14:24:07;;;;;;;7.27;4.87;;;;;;;;;;5136126;27;20927;-62
2023/07/13 14:26:38;;;;;;;5.70;5.20;;;;;;;;;;5138129;27;20431;-62
2023/07/13 14:29:06;;;;;;;7.30;5.00;;;;;;;;;;5137862;27;20931;-63
2023/07/13 14:31:33;;;;;;;7.57;5.40;;;;;;;;;;5138192;27;20770;-63
2023/07/13 14:34:01;;;;;;;7.63;4.97;;;;;;;;;;5138066;27;20438;-63
2023/07/13 14:36:30;;;;;;;6.90;5.53;;;;;;;;;;5138165;27;20770;-63
2023/07/13 14:38:59;;;;;;;6.07;5.13;;;;;;;;;;5137746;27;20450;-64
2023/07/13 14:41:26;;;;;;;5.40;4.87;;;;;;;;;;5137610;27;20458;-63
2023/07/13 14:43:54;;;;;;;8.63;5.33;;;;;;;;;;5137659;27;20439;-63
2023/07/13 14:46:26;;;;;;;7.87;5.00;;;;;;;;;;5137837;27;20533;-63
2023/07/13 14:48:54;;;;;;;6.40;4.30;;;;;;;;;;5137668;27;20435;-64